sensor_id;sensor_type;location;lat;lon;timestamp;pressure;altitude;pressure_sealevel;temperature;humidity
70781;BME280;72716;48.814;2.126;2024-02-28T12:16:57;100888.91;;;7.59;100.00
70781;BME280;72716;48.814;2.126;2024-02-28T12:19:23;100868.41;;;7.79;100.00
70781;BME280;72716;48.814;2.126;2024-02-28T12:21:49;100875.59;;;7.93;100.00
70781;BME280;72716;48.814;2.126;2024-02-28T12:24:14;100871.91;;;8.32;100.00
70781;BME280;72716;48.814;2.126;2024-02-28T12:26:39;100857.66;;;8.66;100.00
70781;BME280;72716;48.814;2.126;2024-02-28T12:29:05;100862.41;;;8.93;100.00
70781;BME280;72716;48.814;2.126;2024-02-28T12:31:31;100865.19;;;9.07;100.00
70781;BME280;72716;48.814;2.126;2024-02-28T12:33:56;100854.09;;;9.26;100.00
70781;BME280;72716;48.814;2.126;2024-02-28T12:36:22;100849.22;;;8.84;100.00
70781;BME280;72716;48.814;2.126;2024-02-28T12:38:47;100846.41;;;9.40;100.00
70781;BME280;72716;48.814;2.126;2024-02-28T12:41:14;100850.09;;;9.56;100.00
70781;BME280;72716;48.814;2.126;2024-02-28T12:43:40;100839.56;;;10.52;100.00
70781;BME280;72716;48.814;2.126;2024-02-28T12:46:06;100838.44;;;10.17;100.00
70781;BME280;72716;48.814;2.126;2024-02-28T12:48:37;100840.78;;;9.86;100.00
70781;BME280;72716;48.814;2.126;2024-02-28T12:51:02;100846.56;;;10.55;100.00
70781;BME280;72716;48.814;2.126;2024-02-28T12:53:28;100838.44;;;10.22;100.00
70781;BME280;72716;48.814;2.126;2024-02-28T12:55:53;100837.06;;;8.86;100.00
70781;BME280;72716;48.814;2.126;2024-02-28T12:58:19;100835.94;;;9.37;100.00
70781;BME280;72716;48.814;2.126;2024-02-28T13:00:44;100838.63;;;9.44;100.00
70781;BME280;72716;48.814;2.126;2024-02-28T13:03:09;100836.66;;;8.56;100.00
70781;BME280;72716;48.814;2.126;2024-02-28T13:05:35;100835.06;;;9.36;100.00
70781;BME280;72716;48.814;2.126;2024-02-28T13:08:00;100830.31;;;9.86;100.00
70781;BME280;72716;48.814;2.126;2024-02-28T13:10:25;100826.47;;;9.50;100.00
70781;BME280;72716;48.814;2.126;2024-02-28T13:12:51;100829.38;;;9.78;100.00
70781;BME280;72716;48.814;2.126;2024-02-28T13:15:16;100836.28;;;8.93;100.00
70781;BME280;72716;48.814;2.126;2024-02-28T13:17:42;100826.84;;;9.05;100.00
70781;BME280;72716;48.814;2.126;2024-02-28T13:20:07;100811.22;;;8.41;100.00
70781;BME280;72716;48.814;2.126;2024-02-28T13:22:33;100822.94;;;8.11;100.00
70781;BME280;72716;48.814;2.126;2024-02-28T13:24:58;100812.56;;;8.73;100.00
70781;BME280;72716;48.814;2.126;2024-02-28T13:27:24;100810.81;;;8.13;100.00
70781;BME280;72716;48.814;2.126;2024-02-28T13:29:49;100798.41;;;8.55;100.00
70781;BME280;72716;48.814;2.126;2024-02-28T13:32:15;100793.09;;;8.50;100.00
70781;BME280;72716;48.814;2.126;2024-02-28T13:34:40;100788.13;;;8.68;100.00
70781;BME280;72716;48.814;2.126;2024-02-28T13:37:06;100780.53;;;8.85;100.00
70781;BME280;72716;48.814;2.126;2024-02-28T13:39:31;100775.13;;;8.69;100.00
70781;BME280;72716;48.814;2.126;2024-02-28T13:41:57;100769.66;;;8.54;100.00
70781;BME280;72716;48.814;2.126;2024-02-28T13:44:22;100760.44;;;8.78;100.00
70781;BME280;72716;48.814;2.126;2024-02-28T13:46:50;100759.88;;;9.04;100.00
70781;BME280;72716;48.814;2.126;2024-02-28T13:49:17;100754.28;;;8.72;100.00
70781;BME280;72716;48.814;2.126;2024-02-28T13:51:44;100742.56;;;9.15;100.00
70781;BME280;72716;48.814;2.126;2024-02-28T13:54:09;100740.84;;;9.17;100.00
70781;BME280;72716;48.814;2.126;2024-02-28T13:56:34;100744.22;;;9.07;100.00
70781;BME280;72716;48.814;2.126;2024-02-28T13:59:00;100746.38;;;8.66;100.00
70781;BME280;72716;48.814;2.126;2024-02-28T14:01:25;100742.69;;;8.52;100.00
70781;BME280;72716;48.814;2.126;2024-02-28T14:03:50;100741.91;;;8.56;100.00
70781;BME280;72716;48.814;2.126;2024-02-28T14:06:16;100735.97;;;8.69;100.00
70781;BME280;72716;48.814;2.126;2024-02-28T14:08:41;100731.56;;;8.65;100.00
70781;BME280;72716;48.814;2.126;2024-02-28T14:11:06;100724.03;;;8.87;100.00
70781;BME280;72716;48.814;2.126;2024-02-28T14:13:32;100722.22;;;8.83;100.00
70781;BME280;72716;48.814;2.126;2024-02-28T14:15:57;100718.88;;;8.96;100.00
70781;BME280;72716;48.814;2.126;2024-02-28T14:18:23;100719.88;;;9.08;100.00
70781;BME280;72716;48.814;2.126;2024-02-28T14:20:48;100714.41;;;8.84;100.00
70781;BME280;72716;48.814;2.126;2024-02-28T14:23:14;100700.44;;;8.81;100.00
70781;BME280;72716;48.814;2.126;2024-02-28T14:25:39;100696.84;;;8.68;100.00
70781;BME280;72716;48.814;2.126;2024-02-28T14:28:06;100695.06;;;8.65;100.00
70781;BME280;72716;48.814;2.126;2024-02-28T14:30:32;100705.44;;;8.62;100.00
70781;BME280;72716;48.814;2.126;2024-02-28T14:32:59;100702.84;;;8.62;100.00
70781;BME280;72716;48.814;2.126;2024-02-28T14:35:24;100707.13;;;8.57;100.00
70781;BME280;72716;48.814;2.126;2024-02-28T14:37:49;100701.94;;;8.60;100.00
70781;BME280;72716;48.814;2.126;2024-02-28T14:40:17;100709.94;;;8.74;100.00
70781;BME280;72716;48.814;2.126;2024-02-28T14:42:43;100700.03;;;8.49;100.00
70781;BME280;72716;48.814;2.126;2024-02-28T14:45:11;100703.69;;;8.58;100.00
70781;BME280;72716;48.814;2.126;2024-02-28T14:47:40;100718.19;;;8.40;100.00
70781;BME280;72716;48.814;2.126;2024-02-28T14:50:06;100716.41;;;8.37;100.00
70781;BME280;72716;48.814;2.126;2024-02-28T14:52:36;100712.94;;;8.37;100.00
70781;BME280;72716;48.814;2.126;2024-02-28T14:55:02;100709.22;;;8.19;100.00
70781;BME280;72716;48.814;2.126;2024-02-28T14:57:29;100708.47;;;8.26;100.00
70781;BME280;72716;48.814;2.126;2024-02-28T14:59:56;100701.47;;;8.25;100.00
70781;BME280;72716;48.814;2.126;2024-02-28T15:02:21;100693.53;;;8.13;100.00
70781;BME280;72716;48.814;2.126;2024-02-28T15:04:47;100688.44;;;8.24;100.00
70781;BME280;72716;48.814;2.126;2024-02-28T15:07:14;100684.13;;;8.28;100.00
70781;BME280;72716;48.814;2.126;2024-02-28T15:09:40;100703.13;;;8.17;100.00
70781;BME280;72716;48.814;2.126;2024-02-28T15:12:05;100703.09;;;8.14;100.00
70781;BME280;72716;48.814;2.126;2024-02-28T15:14:31;100691.03;;;8.24;100.00
70781;BME280;72716;48.814;2.126;2024-02-28T15:16:56;100688.69;;;8.46;100.00
70781;BME280;72716;48.814;2.126;2024-02-28T15:19:22;100682.50;;;8.36;100.00
70781;BME280;72716;48.814;2.126;2024-02-28T15:21:47;100688.66;;;8.43;100.00
70781;BME280;72716;48.814;2.126;2024-02-28T15:24:12;100687.00;;;8.48;100.00
70781;BME280;72716;48.814;2.126;2024-02-28T15:26:39;100677.31;;;8.37;100.00
70781;BME280;72716;48.814;2.126;2024-02-28T15:29:04;100672.19;;;8.45;100.00
70781;BME280;72716;48.814;2.126;2024-02-28T15:31:30;100675.03;;;8.61;100.00
70781;BME280;72716;48.814;2.126;2024-02-28T15:33:55;100665.72;;;8.85;100.00
70781;BME280;72716;48.814;2.126;2024-02-28T15:36:21;100675.22;;;8.78;100.00
70781;BME280;72716;48.814;2.126;2024-02-28T15:38:46;100672.25;;;8.50;100.00
70781;BME280;72716;48.814;2.126;2024-02-28T15:41:11;100673.25;;;8.58;100.00
70781;BME280;72716;48.814;2.126;2024-02-28T15:43:37;100675.97;;;8.68;100.00
70781;BME280;72716;48.814;2.126;2024-02-28T15:46:02;100681.28;;;8.79;100.00
70781;BME280;72716;48.814;2.126;2024-02-28T15:48:28;100669.88;;;8.67;100.00
70781;BME280;72716;48.814;2.126;2024-02-28T15:50:53;100674.69;;;8.36;100.00
70781;BME280;72716;48.814;2.126;2024-02-28T15:53:20;100678.25;;;8.43;100.00
70781;BME280;72716;48.814;2.126;2024-02-28T15:55:45;100672.19;;;8.44;100.00
70781;BME280;72716;48.814;2.126;2024-02-28T15:58:11;100670.41;;;8.41;100.00
70781;BME280;72716;48.814;2.126;2024-02-28T16:00:36;100674.72;;;8.41;100.00
70781;BME280;72716;48.814;2.126;2024-02-28T16:03:02;100668.66;;;8.40;100.00
70781;BME280;72716;48.814;2.126;2024-02-28T16:05:27;100665.03;;;8.29;100.00
70781;BME280;72716;48.814;2.126;2024-02-28T16:07:53;100672.03;;;8.33;100.00
70781;BME280;72716;48.814;2.126;2024-02-28T16:10:20;100671.97;;;8.26;100.00
70781;BME280;72716;48.814;2.126;2024-02-28T16:12:46;100680.63;;;8.25;100.00
70781;BME280;72716;48.814;2.126;2024-02-28T16:15:11;100678.84;;;8.21;100.00
70781;BME280;72716;48.814;2.126;2024-02-28T16:17:37;100680.66;;;8.29;100.00
70781;BME280;72716;48.814;2.126;2024-02-28T16:20:03;100681.50;;;8.26;100.00
70781;BME280;72716;48.814;2.126;2024-02-28T16:22:29;100678.06;;;8.29;100.00
70781;BME280;72716;48.814;2.126;2024-02-28T16:24:54;100671.97;;;8.26;100.00
70781;BME280;72716;48.814;2.126;2024-02-28T16:27:20;100670.16;;;8.22;100.00
70781;BME280;72716;48.814;2.126;2024-02-28T16:29:45;100672.72;;;8.16;100.00
70781;BME280;72716;48.814;2.126;2024-02-28T16:32:10;100673.59;;;8.18;100.00
70781;BME280;72716;48.814;2.126;2024-02-28T16:34:36;100664.88;;;8.16;100.00
70781;BME280;72716;48.814;2.126;2024-02-28T16:37:02;100670.16;;;8.22;100.00
70781;BME280;72716;48.814;2.126;2024-02-28T16:39:28;100670.16;;;8.22;100.00
70781;BME280;72716;48.814;2.126;2024-02-28T16:41:55;100664.94;;;8.22;100.00
70781;BME280;72716;48.814;2.126;2024-02-28T16:44:20;100658.06;;;8.26;100.00
70781;BME280;72716;48.814;2.126;2024-02-28T16:46:45;100653.72;;;8.26;100.00
70781;BME280;72716;48.814;2.126;2024-02-28T16:49:11;100653.78;;;8.33;100.00
70781;BME280;72716;48.814;2.126;2024-02-28T16:51:37;100664.22;;;8.33;100.00
70781;BME280;72716;48.814;2.126;2024-02-28T16:54:02;100665.13;;;8.35;100.00
70781;BME280;72716;48.814;2.126;2024-02-28T16:56:27;100672.06;;;8.34;100.00
70781;BME280;72716;48.814;2.126;2024-02-28T16:58:53;100668.56;;;8.34;100.00
70781;BME280;72716;48.814;2.126;2024-02-28T17:01:18;100663.34;;;8.34;100.00
70781;BME280;72716;48.814;2.126;2024-02-28T17:03:43;100654.66;;;8.32;100.00
70781;BME280;72716;48.814;2.126;2024-02-28T17:06:09;100647.69;;;8.31;100.00
70781;BME280;72716;48.814;2.126;2024-02-28T17:08:34;100655.56;;;8.35;100.00
70781;BME280;72716;48.814;2.126;2024-02-28T17:11:01;100646.88;;;8.35;100.00
70781;BME280;72716;48.814;2.126;2024-02-28T17:13:26;100648.56;;;8.31;100.00
70781;BME280;72716;48.814;2.126;2024-02-28T17:15:52;100644.16;;;8.29;100.00
70781;BME280;72716;48.814;2.126;2024-02-28T17:18:23;100638.09;;;8.26;100.00
70781;BME280;72716;48.814;2.126;2024-02-28T17:20:48;100644.09;;;8.22;100.00
70781;BME280;72716;48.814;2.126;2024-02-28T17:23:14;100647.59;;;8.24;100.00
